createdAt,value
2019-04-04T00:01:26.742Z,8.58
2019-04-04T00:03:56.320Z,9.67
2019-04-04T00:06:27.022Z,7.30
2019-04-04T00:08:57.257Z,7.40
2019-04-04T00:11:26.785Z,6.50
2019-04-04T00:13:56.051Z,7.20
2019-04-04T00:16:25.600Z,7.10
2019-04-04T00:18:55.190Z,6.83
2019-04-04T00:21:24.457Z,7.10
2019-04-04T00:23:53.688Z,6.20
2019-04-04T00:26:23.056Z,6.10
2019-04-04T00:28:53.155Z,6.00
2019-04-04T00:31:22.727Z,6.67
2019-04-04T00:33:51.876Z,6.37
2019-04-04T00:36:21.081Z,6.33
2019-04-04T00:38:50.665Z,6.67
2019-04-04T00:41:21.249Z,7.20
2019-04-04T00:43:51.777Z,6.27
2019-04-04T00:46:22.002Z,7.67
2019-04-04T00:48:51.528Z,7.85
2019-04-04T00:51:20.791Z,8.80
2019-04-04T00:53:50.240Z,10.85
2019-04-04T00:56:19.424Z,10.73
2019-04-04T00:58:51.832Z,10.15
2019-04-04T01:01:20.948Z,11.50
2019-04-04T01:03:50.125Z,10.48
2019-04-04T01:06:19.368Z,10.23
2019-04-04T01:08:48.533Z,11.37
2019-04-04T01:11:18.309Z,11.75
2019-04-04T01:13:49.327Z,9.80
2019-04-04T01:16:18.530Z,10.50
2019-04-04T01:18:47.757Z,10.77
2019-04-04T01:21:17.303Z,12.17
2019-04-04T01:23:46.668Z,11.60
2019-04-04T01:26:15.940Z,11.50
2019-04-04T01:28:45.539Z,12.00
2019-04-04T01:31:15.480Z,13.80
2019-04-04T01:33:44.728Z,12.03
2019-04-04T01:36:14.667Z,13.55
2019-04-04T01:38:43.819Z,13.80
2019-04-04T01:41:12.940Z,14.27
2019-04-04T01:43:42.657Z,14.70
2019-04-04T01:46:13.039Z,16.00
2019-04-04T01:48:43.257Z,15.40
2019-04-04T01:51:12.492Z,16.45
2019-04-04T01:53:41.949Z,16.57
2019-04-04T01:56:11.181Z,17.90
2019-04-04T01:58:41.849Z,16.42
2019-04-04T02:01:11.206Z,17.30
2019-04-04T02:03:40.493Z,17.40
2019-04-04T02:06:09.761Z,16.03
2019-04-04T02:08:39.008Z,16.05
2019-04-04T02:11:08.269Z,14.07
2019-04-04T02:13:40.532Z,16.67
2019-04-04T02:16:08.918Z,16.13
2019-04-04T02:18:38.131Z,16.90
2019-04-04T02:21:07.696Z,14.97
2019-04-04T02:23:36.887Z,17.60
2019-04-04T02:26:06.025Z,17.17
2019-04-04T02:28:35.211Z,16.62
2019-04-04T02:31:06.138Z,16.23
2019-04-04T02:33:35.718Z,15.57
2019-04-04T02:36:04.875Z,16.27
2019-04-04T02:38:34.430Z,15.40
2019-04-04T02:41:03.704Z,16.27
2019-04-04T02:43:32.918Z,16.03
2019-04-04T02:46:02.200Z,16.37
2019-04-04T02:48:31.396Z,16.23
2019-04-04T02:51:00.601Z,17.43
2019-04-04T02:53:30.077Z,17.47
2019-04-04T02:56:02.220Z,16.60
2019-04-04T02:58:30.186Z,17.23
2019-04-04T03:01:00.587Z,16.80
2019-04-04T03:03:29.931Z,17.47
2019-04-04T03:05:59.492Z,17.00
2019-04-04T03:08:28.748Z,20.40
2019-04-04T03:10:58.042Z,18.53
2019-04-04T03:13:31.161Z,17.07
2019-04-04T03:15:58.524Z,18.23
2019-04-04T03:18:27.778Z,18.20
2019-04-04T03:20:56.998Z,16.97
2019-04-04T03:23:26.276Z,18.20
2019-04-04T03:25:55.391Z,17.90
2019-04-04T03:28:24.562Z,18.20
2019-04-04T03:31:01.789Z,19.03
2019-04-04T03:33:29.216Z,17.67
2019-04-04T03:35:59.886Z,19.20
2019-04-04T03:38:27.315Z,19.50
2019-04-04T03:40:57.950Z,18.20
2019-04-04T03:43:28.431Z,17.60
2019-04-04T03:46:00.352Z,18.40
2019-04-04T03:48:28.614Z,19.77
2019-04-04T03:51:00.668Z,18.90
2019-04-04T03:53:33.548Z,18.97
2019-04-04T03:56:03.045Z,18.63
2019-04-04T03:58:34.691Z,18.20
2019-04-04T04:01:04.069Z,20.00
2019-04-04T04:03:33.289Z,18.67
2019-04-04T04:06:02.573Z,18.80
2019-04-04T04:08:31.719Z,19.50
2019-04-04T04:11:04.703Z,18.25
2019-04-04T04:13:31.940Z,17.23
2019-04-04T04:16:03.705Z,18.05
2019-04-04T04:18:32.378Z,21.42
2019-04-04T04:21:01.933Z,19.23
2019-04-04T04:23:31.185Z,18.70
2019-04-04T04:26:00.359Z,20.25
2019-04-04T04:28:29.554Z,20.10
2019-04-04T04:30:59.155Z,20.20
2019-04-04T04:33:29.977Z,19.87
2019-04-04T04:35:59.334Z,22.27
2019-04-04T04:38:28.782Z,22.60
2019-04-04T04:41:00.431Z,19.42
2019-04-04T04:43:32.762Z,20.30
2019-04-04T04:46:00.747Z,21.43
2019-04-04T04:48:31.849Z,19.90
2019-04-04T04:51:03.417Z,21.27
2019-04-04T04:53:34.270Z,20.47
2019-04-04T04:56:03.480Z,20.13
2019-04-04T04:58:33.777Z,20.57
2019-04-04T05:01:03.201Z,20.63
2019-04-04T05:03:33.134Z,21.57
2019-04-04T05:06:03.461Z,21.73
2019-04-04T05:08:33.175Z,18.60
2019-04-04T05:11:03.871Z,18.67
2019-04-04T05:13:33.134Z,19.35
2019-04-04T05:16:04.794Z,20.47
2019-04-04T05:18:37.851Z,21.45
2019-04-04T05:21:07.115Z,22.00
2019-04-04T05:23:36.337Z,22.23
2019-04-04T05:26:06.109Z,23.83
2019-04-04T05:28:36.067Z,26.03
2019-04-04T05:31:07.891Z,24.13
2019-04-04T05:33:38.407Z,21.80
2019-04-04T05:36:08.444Z,21.33
2019-04-04T05:38:37.762Z,22.87
2019-04-04T05:41:10.783Z,22.77
2019-04-04T05:43:41.371Z,24.37
2019-04-04T05:46:10.688Z,20.23
2019-04-04T05:48:40.545Z,20.27
2019-04-04T05:51:14.930Z,21.97
2019-04-04T05:53:43.242Z,22.60
2019-04-04T05:56:15.228Z,20.57
2019-04-04T05:58:44.609Z,22.33
2019-04-04T06:01:15.600Z,22.67
2019-04-04T06:03:47.860Z,21.97
2019-04-04T06:06:16.916Z,23.40
2019-04-04T06:08:48.051Z,21.87
2019-04-04T06:11:20.903Z,21.43
2019-04-04T06:13:51.767Z,22.13
2019-04-04T06:16:22.159Z,22.97
2019-04-04T06:18:55.131Z,23.20
2019-04-04T06:21:27.942Z,23.00
2019-04-04T06:23:57.528Z,21.63
2019-04-04T06:26:28.175Z,22.50
2019-04-04T06:28:57.409Z,22.20
2019-04-04T06:31:30.638Z,22.00
2019-04-04T06:34:00.247Z,22.73
2019-04-04T06:36:30.142Z,21.30
2019-04-04T06:39:00.019Z,21.97
2019-04-04T06:41:30.705Z,20.62
2019-04-04T06:44:01.592Z,18.90
2019-04-04T06:46:34.515Z,17.27
2019-04-04T06:49:07.303Z,18.50
2019-04-04T06:51:37.484Z,18.15
2019-04-04T06:54:07.617Z,15.73
2019-04-04T06:56:36.939Z,17.60
2019-04-04T06:59:12.156Z,17.67
2019-04-04T07:01:41.085Z,17.70
2019-04-04T07:04:10.643Z,17.93
2019-04-04T07:06:42.468Z,17.80
2019-04-04T07:09:13.611Z,18.67
2019-04-04T07:11:43.915Z,18.60
2019-04-04T07:14:13.799Z,19.32
2019-04-04T07:16:43.972Z,19.63
2019-04-04T07:19:15.267Z,19.73
2019-04-04T07:21:44.846Z,17.57
2019-04-04T07:24:15.234Z,19.07
2019-04-04T07:26:46.122Z,18.00
2019-04-04T07:29:15.388Z,17.93
2019-04-04T07:31:45.085Z,17.60
2019-04-04T07:34:15.360Z,16.35
2019-04-04T07:36:44.580Z,17.90
2019-04-04T07:39:14.192Z,17.93
2019-04-04T07:41:44.911Z,17.63
2019-04-04T07:44:14.439Z,16.63
2019-04-04T07:46:45.992Z,19.57
2019-04-04T07:49:15.804Z,17.60
2019-04-04T07:51:45.076Z,19.30
2019-04-04T07:54:14.499Z,19.30
2019-04-04T07:56:46.765Z,20.20
2019-04-04T07:59:15.146Z,19.50
2019-04-04T08:01:50.993Z,18.57
2019-04-04T08:04:16.411Z,18.20
2019-04-04T08:06:45.699Z,16.60
2019-04-04T08:09:16.821Z,17.70
2019-04-04T08:11:46.412Z,18.93
2019-04-04T08:14:17.699Z,17.33
2019-04-04T08:16:48.581Z,19.47
2019-04-04T08:19:19.543Z,17.27
2019-04-04T08:21:49.105Z,19.30
2019-04-04T08:24:18.818Z,17.23
2019-04-04T08:26:48.783Z,15.50
2019-04-04T08:29:18.282Z,16.63
2019-04-04T08:31:48.669Z,13.83
2019-04-04T08:34:18.028Z,15.60
2019-04-04T08:36:48.700Z,14.90
2019-04-04T08:39:19.349Z,15.20
2019-04-04T08:41:48.942Z,14.50
2019-04-04T08:44:19.411Z,14.35
2019-04-04T08:46:48.659Z,15.17
2019-04-04T08:49:18.497Z,12.23
2019-04-04T08:51:48.864Z,14.00
2019-04-04T08:54:19.796Z,13.33
2019-04-04T08:56:49.262Z,13.60
2019-04-04T08:59:18.451Z,13.67
2019-04-04T09:01:48.524Z,13.73
2019-04-04T09:04:19.645Z,10.72
2019-04-04T09:06:50.594Z,10.47
2019-04-04T09:09:23.386Z,9.27
2019-04-04T09:11:52.881Z,9.57
2019-04-04T09:14:25.295Z,9.65
2019-04-04T09:16:54.744Z,9.07
2019-04-04T09:19:25.209Z,8.20
2019-04-04T09:21:55.736Z,8.03
2019-04-04T09:24:25.943Z,8.63
2019-04-04T09:26:55.557Z,8.03
2019-04-04T09:29:27.376Z,7.80
2019-04-04T09:31:56.603Z,8.03
2019-04-04T09:34:26.358Z,8.70
2019-04-04T09:36:57.284Z,8.30
2019-04-04T09:39:30.776Z,7.50
2019-04-04T09:42:04.934Z,7.97
2019-04-04T09:44:34.475Z,8.13
2019-04-04T09:47:07.712Z,8.10
2019-04-04T09:49:37.420Z,8.27
2019-04-04T09:52:07.168Z,8.53
2019-04-04T09:54:37.048Z,8.10
2019-04-04T09:57:06.369Z,6.80
2019-04-04T09:59:35.928Z,8.27
2019-04-04T10:02:06.964Z,7.87
2019-04-04T10:04:37.252Z,8.00
2019-04-04T10:07:09.328Z,8.17
2019-04-04T10:09:40.899Z,8.23
2019-04-04T10:12:11.152Z,7.10
2019-04-04T10:14:40.304Z,7.40
2019-04-04T10:17:12.745Z,8.18
2019-04-04T10:19:43.364Z,7.00
2019-04-04T10:22:13.545Z,6.73
2019-04-04T10:24:44.046Z,6.90
2019-04-04T10:27:13.437Z,6.78
2019-04-04T10:29:42.785Z,7.50
2019-04-04T10:32:13.674Z,7.20
2019-04-04T10:34:43.306Z,6.90
2019-04-04T10:37:12.612Z,6.70
2019-04-04T10:39:42.887Z,6.58
2019-04-04T10:42:13.039Z,8.30
2019-04-04T10:44:42.808Z,6.67
2019-04-04T10:47:13.871Z,8.20
2019-04-04T10:49:43.083Z,6.97
2019-04-04T10:52:12.686Z,5.30
2019-04-04T10:54:42.289Z,6.50
2019-04-04T10:57:11.764Z,6.37
2019-04-04T10:59:41.080Z,6.20
2019-04-04T11:02:10.589Z,6.80
2019-04-04T11:04:40.348Z,6.83
2019-04-04T11:07:09.877Z,6.20
2019-04-04T11:09:42.158Z,6.90
2019-04-04T11:12:11.876Z,6.73
2019-04-04T11:14:41.031Z,7.50
2019-04-04T11:17:10.817Z,6.15
2019-04-04T11:19:43.184Z,6.55
2019-04-04T11:22:11.350Z,6.97
2019-04-04T11:24:40.625Z,6.63
2019-04-04T11:27:10.761Z,7.10
2019-04-04T11:29:40.064Z,5.70
2019-04-04T11:32:09.239Z,6.77
2019-04-04T11:34:38.513Z,6.77
2019-04-04T11:37:07.799Z,6.03
2019-04-04T11:39:37.043Z,7.20
2019-04-04T11:42:06.196Z,6.10
2019-04-04T11:44:35.691Z,7.80
2019-04-04T11:47:04.961Z,7.03
2019-04-04T11:49:34.182Z,6.17
2019-04-04T11:52:03.416Z,6.37
2019-04-04T11:54:32.696Z,6.70
2019-04-04T11:57:01.936Z,6.42
2019-04-04T11:59:31.618Z,6.60
2019-04-04T12:02:00.923Z,7.87
2019-04-04T12:04:30.094Z,6.85
2019-04-04T12:07:00.068Z,6.67
2019-04-04T12:09:29.329Z,6.40
2019-04-04T12:11:58.440Z,6.97
2019-04-04T12:14:27.717Z,7.27
2019-04-04T12:16:56.979Z,7.45
2019-04-04T12:19:26.536Z,6.72
2019-04-04T12:21:55.680Z,6.97
2019-04-04T12:24:24.995Z,7.03
2019-04-04T12:26:54.196Z,8.00
2019-04-04T12:29:23.481Z,6.97
2019-04-04T12:31:52.765Z,7.00
2019-04-04T12:34:22.023Z,7.87
2019-04-04T12:36:51.191Z,7.20
2019-04-04T12:39:20.491Z,7.03
2019-04-04T12:41:49.671Z,7.20
2019-04-04T12:44:18.971Z,6.80
2019-04-04T12:46:48.314Z,6.40
2019-04-04T12:49:17.647Z,7.00
2019-04-04T12:51:47.171Z,6.37
2019-04-04T12:54:16.399Z,6.80
2019-04-04T12:56:45.669Z,6.40
2019-04-04T12:59:15.040Z,5.80
2019-04-04T13:01:44.421Z,5.40
2019-04-04T13:04:13.989Z,6.27
2019-04-04T13:06:47.596Z,6.03
2019-04-04T13:09:17.056Z,5.40
2019-04-04T13:11:46.866Z,6.07
2019-04-04T13:14:16.488Z,5.95
2019-04-04T13:16:45.961Z,5.47
2019-04-04T13:19:15.819Z,4.45
2019-04-04T13:21:45.789Z,5.75
2019-04-04T13:24:18.085Z,5.40
2019-04-04T13:26:51.332Z,5.13
2019-04-04T13:29:20.651Z,4.53
2019-04-04T13:31:49.812Z,4.40
2019-04-04T13:34:19.335Z,4.67
2019-04-04T13:36:49.367Z,4.87
2019-04-04T13:39:18.716Z,4.20
2019-04-04T13:41:50.147Z,4.70
2019-04-04T13:44:23.163Z,4.07
2019-04-04T13:46:50.692Z,4.00
2019-04-04T13:49:21.785Z,4.33
2019-04-04T13:51:53.074Z,4.13
2019-04-04T13:54:22.966Z,4.03
2019-04-04T13:56:53.680Z,4.30
2019-04-04T13:59:25.368Z,3.65
2019-04-04T14:01:56.211Z,3.55
2019-04-04T14:04:25.662Z,3.93
2019-04-04T14:06:55.123Z,3.70
2019-04-04T14:09:25.033Z,4.13
2019-04-04T14:11:56.564Z,3.95
2019-04-04T14:14:26.604Z,3.80
2019-04-04T14:16:55.923Z,3.60
2019-04-04T14:19:26.918Z,4.17
2019-04-04T14:21:56.647Z,4.03
2019-04-04T14:24:26.393Z,4.10
2019-04-04T14:26:55.656Z,3.87
2019-04-04T14:29:27.712Z,3.80
2019-04-04T14:31:57.430Z,3.90
2019-04-04T14:34:28.517Z,3.50
2019-04-04T14:36:59.079Z,3.80
2019-04-04T14:39:28.967Z,3.33
2019-04-04T14:42:04.386Z,3.47
2019-04-04T14:44:35.983Z,3.97
2019-04-04T14:47:07.274Z,4.53
2019-04-04T14:49:36.577Z,4.40
2019-04-04T14:52:06.368Z,3.70
2019-04-04T14:54:38.300Z,3.60
2019-04-04T14:57:09.882Z,3.83
2019-04-04T14:59:40.927Z,4.40
2019-04-04T15:02:10.230Z,3.20
2019-04-04T15:04:39.592Z,3.20
2019-04-04T15:07:10.452Z,4.10
2019-04-04T15:09:43.628Z,4.10
2019-04-04T15:12:16.417Z,3.80
2019-04-04T15:14:46.398Z,3.20
2019-04-04T15:17:16.393Z,2.87
2019-04-04T15:19:45.673Z,3.53
2019-04-04T15:22:17.629Z,2.90
2019-04-04T15:24:47.762Z,3.13
2019-04-04T15:27:17.285Z,3.70
2019-04-04T15:29:46.478Z,3.70
2019-04-04T15:32:16.618Z,3.17
2019-04-04T15:34:45.889Z,3.58
2019-04-04T15:37:16.612Z,3.12
2019-04-04T15:39:46.091Z,3.30
2019-04-04T15:42:15.299Z,3.53
2019-04-04T15:44:45.586Z,4.90
2019-04-04T15:47:17.372Z,4.30
2019-04-04T15:49:46.871Z,4.00
2019-04-04T15:52:16.060Z,4.20
2019-04-04T15:54:45.887Z,4.20
2019-04-04T15:57:15.534Z,3.87
2019-04-04T15:59:46.079Z,4.47
2019-04-04T16:02:18.703Z,4.10
2019-04-04T16:04:48.001Z,4.17
2019-04-04T16:07:17.528Z,4.55
2019-04-04T16:09:47.013Z,4.60
2019-04-04T16:12:16.271Z,5.00
2019-04-04T16:14:45.467Z,5.50
2019-04-04T16:17:15.056Z,5.90
2019-04-04T16:19:47.784Z,6.17
2019-04-04T16:22:17.022Z,5.90
2019-04-04T16:24:47.306Z,5.23
2019-04-04T16:27:20.886Z,5.70
2019-04-04T16:29:52.299Z,6.28
2019-04-04T16:32:24.004Z,6.57
2019-04-04T16:34:54.770Z,6.87
2019-04-04T16:37:26.186Z,5.73
2019-04-04T16:40:07.838Z,6.17
2019-04-04T16:42:26.751Z,5.83
2019-04-04T16:45:00.476Z,7.10
2019-04-04T16:47:29.907Z,6.37
2019-04-04T16:49:59.528Z,7.47
2019-04-04T16:52:30.510Z,7.10
2019-04-04T16:55:01.953Z,7.20
2019-04-04T16:57:31.415Z,6.53
2019-04-04T17:00:01.313Z,6.87
2019-04-04T17:02:30.679Z,6.40
2019-04-04T17:05:02.197Z,6.47
2019-04-04T17:07:31.434Z,6.40
2019-04-04T17:10:01.032Z,6.23
2019-04-04T17:12:30.617Z,9.50
2019-04-04T17:14:59.865Z,8.00
2019-04-04T17:17:29.931Z,6.50
2019-04-04T17:19:59.484Z,6.20
2019-04-04T17:22:29.285Z,7.07
2019-04-04T17:24:58.810Z,6.63
2019-04-04T17:27:28.103Z,7.35
2019-04-04T17:29:57.984Z,6.90
2019-04-04T17:32:27.605Z,6.25
2019-04-04T17:34:57.160Z,5.97
2019-04-04T17:37:27.710Z,6.87
2019-04-04T17:39:57.193Z,6.10
2019-04-04T17:42:30.407Z,6.10
2019-04-04T17:45:00.529Z,6.27
2019-04-04T17:47:29.482Z,6.43
2019-04-04T17:49:59.188Z,7.20
2019-04-04T17:52:28.732Z,6.30
2019-04-04T17:54:58.377Z,6.30
2019-04-04T17:57:28.262Z,7.33
2019-04-04T17:59:58.560Z,6.77
2019-04-04T18:02:28.912Z,6.80
2019-04-04T18:05:00.298Z,11.70
2019-04-04T18:07:29.589Z,7.67
2019-04-04T18:09:58.873Z,7.80
2019-04-04T18:12:39.722Z,7.83
2019-04-04T18:14:59.163Z,6.65
2019-04-04T18:17:28.668Z,7.57
2019-04-04T18:19:58.066Z,6.47
2019-04-04T18:22:27.344Z,13.70
2019-04-04T18:24:56.589Z,9.40
2019-04-04T18:27:26.197Z,10.50
2019-04-04T18:29:55.557Z,8.67
2019-04-04T18:32:24.771Z,9.73
2019-04-04T18:34:54.520Z,12.85
2019-04-04T18:37:24.250Z,8.13
2019-04-04T18:39:54.083Z,6.67
2019-04-04T18:42:23.396Z,7.60
2019-04-04T18:44:52.662Z,7.40
2019-04-04T18:47:21.961Z,9.17
2019-04-04T18:49:51.625Z,8.75
2019-04-04T18:52:21.118Z,6.20
2019-04-04T18:54:50.411Z,7.23
2019-04-04T18:57:19.654Z,7.40
2019-04-04T18:59:48.971Z,8.00
2019-04-04T19:02:18.355Z,12.88
2019-04-04T19:04:47.953Z,9.38
2019-04-04T19:07:17.852Z,9.43
2019-04-04T19:09:47.132Z,8.63
2019-04-04T19:12:16.407Z,10.47
2019-04-04T19:14:45.603Z,7.97
2019-04-04T19:17:15.277Z,9.53
2019-04-04T19:19:44.665Z,11.93
2019-04-04T19:22:13.924Z,9.97
2019-04-04T19:24:43.206Z,12.83
2019-04-04T19:27:12.599Z,11.90
2019-04-04T19:29:41.804Z,14.50
2019-04-04T19:32:11.249Z,10.70
2019-04-04T19:34:43.573Z,11.80
2019-04-04T19:37:11.694Z,8.40
2019-04-04T19:39:41.000Z,9.83
2019-04-04T19:42:10.283Z,9.67
2019-04-04T19:44:39.481Z,9.57
2019-04-04T19:47:09.435Z,8.35
2019-04-04T19:49:38.675Z,8.83
2019-04-04T19:52:08.006Z,8.57
2019-04-04T19:54:37.281Z,6.83
2019-04-04T19:57:06.922Z,6.80
2019-04-04T19:59:36.125Z,7.37
2019-04-04T20:02:05.430Z,10.90
2019-04-04T20:04:35.033Z,7.90
2019-04-04T20:07:04.467Z,9.48
2019-04-04T20:09:33.716Z,9.60
2019-04-04T20:12:03.070Z,7.97
2019-04-04T20:14:32.410Z,7.70
2019-04-04T20:17:01.718Z,9.23
2019-04-04T20:19:31.404Z,7.33
2019-04-04T20:22:00.751Z,9.57
2019-04-04T20:24:30.408Z,7.60
2019-04-04T20:26:59.728Z,8.47
2019-04-04T20:29:29.401Z,7.63
2019-04-04T20:31:58.745Z,8.40
2019-04-04T20:34:28.261Z,8.57
2019-04-04T20:36:57.531Z,8.53
2019-04-04T20:39:30.490Z,8.00
2019-04-04T20:41:59.944Z,8.63
2019-04-04T20:44:29.299Z,7.30
2019-04-04T20:46:58.848Z,8.00
2019-04-04T20:49:27.996Z,7.70
2019-04-04T20:51:57.654Z,8.45
2019-04-04T20:54:26.956Z,8.67
2019-04-04T20:56:57.071Z,7.50
2019-04-04T20:59:28.119Z,8.45
2019-04-04T21:01:57.927Z,8.73
2019-04-04T21:04:27.471Z,7.07
2019-04-04T21:06:57.588Z,8.38
2019-04-04T21:09:27.951Z,8.73
2019-04-04T21:11:57.903Z,9.20
2019-04-04T21:14:27.710Z,8.50
2019-04-04T21:16:56.999Z,9.50
2019-04-04T21:19:26.247Z,9.33
2019-04-04T21:21:55.886Z,8.83
2019-04-04T21:24:25.520Z,8.40
2019-04-04T21:26:55.020Z,9.07
2019-04-04T21:29:24.649Z,9.23
2019-04-04T21:31:54.211Z,8.58
2019-04-04T21:34:23.552Z,9.10
2019-04-04T21:36:52.826Z,9.83
2019-04-04T21:39:22.450Z,8.68
2019-04-04T21:41:51.637Z,9.33
2019-04-04T21:44:20.942Z,8.60
2019-04-04T21:46:51.047Z,8.83
2019-04-04T21:49:20.975Z,8.07
2019-04-04T21:51:50.240Z,9.10
2019-04-04T21:54:28.343Z,9.43
2019-04-04T21:56:57.700Z,9.75
2019-04-04T21:59:27.411Z,9.28
2019-04-04T22:01:56.807Z,10.20
2019-04-04T22:04:26.092Z,9.23
2019-04-04T22:06:56.111Z,10.15
2019-04-04T22:09:25.474Z,8.03
2019-04-04T22:11:54.714Z,9.57
2019-04-04T22:14:24.307Z,9.15
2019-04-04T22:16:53.517Z,8.60
2019-04-04T22:19:24.035Z,9.00
2019-04-04T22:21:53.883Z,10.30
2019-04-04T22:24:23.215Z,9.08
2019-04-04T22:26:52.718Z,10.00
2019-04-04T22:29:21.932Z,9.67
2019-04-04T22:31:51.303Z,9.23
2019-04-04T22:34:20.562Z,9.37
2019-04-04T22:36:49.799Z,9.30
2019-04-04T22:39:18.967Z,8.93
2019-04-04T22:41:50.540Z,8.10
2019-04-04T22:44:20.574Z,7.70
2019-04-04T22:46:50.009Z,9.70
2019-04-04T22:49:19.440Z,9.13
2019-04-04T22:51:48.941Z,8.60
2019-04-04T22:54:18.516Z,9.20
2019-04-04T22:56:48.166Z,8.93
2019-04-04T22:59:18.397Z,9.87
2019-04-04T23:01:47.735Z,9.20
2019-04-04T23:04:21.340Z,7.35
2019-04-04T23:06:56.789Z,8.70
2019-04-04T23:09:26.021Z,9.50
2019-04-04T23:11:55.381Z,8.73
2019-04-04T23:14:24.569Z,7.73
2019-04-04T23:16:53.822Z,8.07
2019-04-04T23:19:23.616Z,7.17
2019-04-04T23:21:53.182Z,7.33
2019-04-04T23:24:24.746Z,6.63
2019-04-04T23:27:29.658Z,6.92
2019-04-04T23:30:02.507Z,7.97
2019-04-04T23:32:35.097Z,7.67
2019-04-04T23:35:07.346Z,8.30
2019-04-04T23:37:41.281Z,7.10
2019-04-04T23:40:22.656Z,7.50
2019-04-04T23:43:03.281Z,6.40
2019-04-04T23:45:47.948Z,8.00
2019-04-04T23:48:19.838Z,7.20
2019-04-04T23:50:52.703Z,7.58
2019-04-04T23:53:25.514Z,6.30
2019-04-04T23:55:54.898Z,6.00
2019-04-04T23:58:24.791Z,6.50
